createdAt,value
2022-10-14T00:01:15.783Z,14.00
2022-10-14T00:03:50.114Z,14.00
2022-10-14T00:06:27.066Z,14.00
2022-10-14T00:09:04.778Z,14.00
2022-10-14T00:11:41.264Z,14.00
2022-10-14T00:14:12.794Z,14.00
2022-10-14T00:16:44.163Z,14.10
2022-10-14T00:19:13.225Z,14.10
2022-10-14T00:21:45.046Z,14.10
2022-10-14T00:24:14.307Z,14.10
2022-10-14T00:26:42.871Z,14.10
2022-10-14T00:29:14.695Z,14.20
2022-10-14T00:31:44.119Z,14.20
2022-10-14T00:34:13.145Z,14.20
2022-10-14T00:36:41.487Z,14.10
2022-10-14T00:39:09.775Z,14.10
2022-10-14T00:41:38.430Z,14.10
2022-10-14T00:44:09.022Z,14.20
2022-10-14T00:46:40.467Z,14.20
2022-10-14T00:49:15.257Z,14.20
2022-10-14T00:51:46.147Z,14.10
2022-10-14T00:54:16.973Z,14.10
2022-10-14T00:56:46.540Z,14.10
2022-10-14T00:59:16.362Z,14.10
2022-10-14T01:01:45.062Z,14.10
2022-10-14T01:04:15.307Z,14.10
2022-10-14T01:06:58.275Z,14.10
2022-10-14T01:09:37.479Z,14.10
2022-10-14T01:12:30.740Z,14.10
2022-10-14T01:15:05.065Z,14.10
2022-10-14T01:17:45.523Z,14.20
2022-10-14T01:20:45.079Z,14.20
2022-10-14T01:23:47.409Z,14.20
2022-10-14T01:26:31.359Z,14.20
2022-10-14T01:29:18.821Z,14.20
2022-10-14T01:31:55.225Z,14.30
2022-10-14T01:34:30.081Z,14.30
2022-10-14T01:37:02.400Z,14.30
2022-10-14T01:39:34.417Z,14.30
2022-10-14T01:42:06.667Z,14.30
2022-10-14T01:44:36.206Z,14.30
2022-10-14T01:47:07.618Z,14.30
2022-10-14T01:49:40.002Z,14.30
2022-10-14T01:52:11.814Z,14.20
2022-10-14T01:54:43.057Z,14.20
2022-10-14T01:57:16.673Z,14.20
2022-10-14T01:59:46.821Z,14.20
2022-10-14T02:02:16.304Z,14.20
2022-10-14T02:04:44.390Z,14.20
2022-10-14T02:07:18.629Z,14.20
2022-10-14T02:09:54.646Z,14.20
2022-10-14T02:12:34.971Z,14.20
2022-10-14T02:15:12.556Z,14.20
2022-10-14T02:17:49.799Z,14.20
2022-10-14T02:20:24.393Z,14.20
2022-10-14T02:22:58.316Z,14.30
2022-10-14T02:25:30.007Z,14.30
2022-10-14T02:28:00.213Z,14.30
2022-10-14T02:30:29.746Z,14.30
2022-10-14T02:33:01.479Z,14.30
2022-10-14T02:35:31.680Z,14.30
2022-10-14T02:38:00.970Z,14.30
2022-10-14T02:40:34.445Z,14.30
2022-10-14T02:43:02.670Z,14.30
2022-10-14T02:45:31.106Z,14.40
2022-10-14T02:48:00.912Z,14.40
2022-10-14T02:50:29.057Z,14.40
2022-10-14T02:52:57.145Z,14.40
2022-10-14T02:55:25.207Z,14.40
2022-10-14T02:57:53.686Z,14.50
2022-10-14T03:00:22.432Z,14.50
2022-10-14T03:02:50.523Z,14.50
2022-10-14T03:05:20.636Z,14.50
2022-10-14T03:07:48.730Z,14.50
2022-10-14T03:10:16.965Z,14.50
2022-10-14T03:12:45.558Z,14.50
2022-10-14T03:15:14.104Z,14.50
2022-10-14T03:17:42.199Z,14.50
2022-10-14T03:20:11.194Z,14.50
2022-10-14T03:22:40.573Z,14.40
2022-10-14T03:25:09.996Z,14.40
2022-10-14T03:27:38.329Z,14.40
2022-10-14T03:30:07.627Z,14.40
2022-10-14T03:32:35.702Z,14.40
2022-10-14T03:35:03.834Z,14.40
2022-10-14T03:37:31.870Z,14.40
2022-10-14T03:40:01.366Z,14.50
2022-10-14T03:42:29.674Z,14.50
2022-10-14T03:44:57.695Z,14.50
2022-10-14T03:47:25.770Z,14.50
2022-10-14T03:49:53.999Z,14.50
2022-10-14T03:52:22.311Z,14.50
2022-10-14T03:54:50.607Z,14.50
2022-10-14T03:57:20.356Z,14.50
2022-10-14T03:59:48.408Z,14.50
2022-10-14T04:02:16.447Z,14.50
2022-10-14T04:04:44.950Z,14.50
2022-10-14T04:07:12.989Z,14.50
2022-10-14T04:09:41.107Z,14.40
2022-10-14T04:12:09.594Z,14.40
2022-10-14T04:14:38.994Z,14.50
2022-10-14T04:17:07.130Z,14.50
2022-10-14T04:19:35.184Z,14.50
2022-10-14T04:22:03.252Z,14.50
2022-10-14T04:24:31.603Z,14.50
2022-10-14T04:27:00.148Z,14.50
2022-10-14T04:29:28.303Z,14.50
2022-10-14T04:31:57.751Z,14.50
2022-10-14T04:34:26.219Z,14.60
2022-10-14T04:36:54.294Z,14.50
2022-10-14T04:39:22.346Z,14.50
2022-10-14T04:41:50.418Z,14.50
2022-10-14T04:44:18.796Z,14.50
2022-10-14T04:46:46.864Z,14.60
2022-10-14T04:49:16.630Z,14.50
2022-10-14T04:51:44.778Z,14.50
2022-10-14T04:54:13.244Z,14.60
2022-10-14T04:56:41.608Z,14.50
2022-10-14T04:59:09.787Z,14.50
2022-10-14T05:01:37.930Z,14.50
2022-10-14T05:04:06.696Z,14.50
2022-10-14T05:06:37.405Z,14.60
2022-10-14T05:09:05.861Z,14.60
2022-10-14T05:11:34.280Z,14.60
2022-10-14T05:14:02.655Z,14.60
2022-10-14T05:16:31.073Z,14.60
2022-10-14T05:18:59.167Z,14.60
2022-10-14T05:21:27.528Z,14.50
2022-10-14T05:23:56.950Z,14.50
2022-10-14T05:26:25.026Z,14.60
2022-10-14T05:28:53.578Z,14.50
2022-10-14T05:31:21.630Z,14.60
2022-10-14T05:33:49.852Z,14.50
2022-10-14T05:36:17.957Z,14.50
2022-10-14T05:38:46.015Z,14.50
2022-10-14T05:41:16.348Z,14.50
2022-10-14T05:43:44.711Z,14.50
2022-10-14T05:46:12.792Z,14.60
2022-10-14T05:48:40.879Z,14.50
2022-10-14T05:51:09.861Z,14.50
2022-10-14T05:53:39.875Z,14.50
2022-10-14T05:56:10.314Z,14.40
2022-10-14T05:58:39.851Z,14.50
2022-10-14T06:01:10.089Z,14.50
2022-10-14T06:03:38.179Z,14.50
2022-10-14T06:06:06.600Z,14.50
2022-10-14T06:08:34.725Z,14.50
2022-10-14T06:11:05.547Z,14.50
2022-10-14T06:13:33.670Z,14.50
2022-10-14T06:16:06.386Z,14.50
2022-10-14T06:18:34.711Z,14.50
2022-10-14T06:21:03.059Z,14.50
2022-10-14T06:23:31.399Z,14.50
2022-10-14T06:25:59.453Z,14.50
2022-10-14T06:28:27.898Z,14.50
2022-10-14T06:30:56.767Z,14.60
2022-10-14T06:33:26.315Z,14.50
2022-10-14T06:35:54.414Z,14.50
2022-10-14T06:38:22.967Z,14.50
2022-10-14T06:40:52.664Z,14.60
2022-10-14T06:43:21.426Z,14.60
2022-10-14T06:45:51.151Z,14.60
2022-10-14T06:48:19.708Z,14.60
2022-10-14T06:50:49.269Z,14.60
2022-10-14T06:53:17.457Z,14.70
2022-10-14T06:55:46.453Z,14.70
2022-10-14T06:58:14.576Z,14.70
2022-10-14T07:00:47.214Z,14.70
2022-10-14T07:03:16.188Z,14.70
2022-10-14T07:05:44.355Z,14.70
2022-10-14T07:08:15.494Z,14.70
2022-10-14T07:10:44.223Z,14.80
2022-10-14T07:13:12.308Z,14.80
2022-10-14T07:15:41.089Z,14.80
2022-10-14T07:18:09.538Z,14.90
2022-10-14T07:20:37.748Z,14.90
2022-10-14T07:23:05.928Z,14.90
2022-10-14T07:25:36.642Z,14.90
2022-10-14T07:28:05.134Z,15.00
2022-10-14T07:30:33.563Z,15.00
2022-10-14T07:33:02.269Z,15.00
2022-10-14T07:35:30.538Z,15.10
2022-10-14T07:38:01.355Z,15.10
2022-10-14T07:40:29.620Z,15.10
2022-10-14T07:43:00.042Z,15.10
2022-10-14T07:45:30.813Z,15.20
2022-10-14T07:47:58.947Z,15.20
2022-10-14T07:50:27.187Z,15.20
2022-10-14T07:52:58.952Z,15.30
2022-10-14T07:55:29.327Z,15.30
2022-10-14T07:57:59.496Z,15.30
2022-10-14T08:00:27.627Z,15.30
2022-10-14T08:02:56.248Z,15.30
2022-10-14T08:05:39.738Z,15.30
2022-10-14T08:08:08.267Z,15.30
2022-10-14T08:10:37.343Z,15.40
2022-10-14T08:13:08.120Z,15.40
2022-10-14T08:15:38.798Z,15.40
2022-10-14T08:18:08.319Z,15.40
2022-10-14T08:20:37.063Z,15.40
2022-10-14T08:23:05.316Z,15.40
2022-10-14T08:25:33.523Z,15.40
2022-10-14T08:28:01.606Z,15.40
2022-10-14T08:30:31.225Z,15.40
2022-10-14T08:33:00.085Z,15.50
2022-10-14T08:35:28.600Z,15.50
2022-10-14T08:37:58.241Z,15.50
2022-10-14T08:40:28.731Z,15.50
2022-10-14T08:43:03.208Z,15.50
2022-10-14T08:45:36.493Z,15.50
2022-10-14T08:48:11.340Z,15.50
2022-10-14T08:50:45.046Z,15.50
2022-10-14T08:53:16.469Z,15.50
2022-10-14T08:55:48.390Z,15.50
2022-10-14T08:58:23.325Z,15.50
2022-10-14T09:00:54.173Z,15.60
2022-10-14T09:03:24.129Z,15.60
2022-10-14T09:05:59.831Z,15.60
2022-10-14T09:08:32.527Z,15.60
2022-10-14T09:11:01.956Z,15.70
2022-10-14T09:13:33.662Z,15.70
2022-10-14T09:16:07.382Z,15.80
2022-10-14T09:18:39.331Z,15.80
2022-10-14T09:21:40.520Z,15.90
2022-10-14T09:24:16.614Z,15.90
2022-10-14T09:26:47.910Z,15.90
2022-10-14T09:29:25.720Z,15.90
2022-10-14T09:31:58.835Z,15.90
2022-10-14T09:34:32.462Z,15.90
2022-10-14T09:37:19.499Z,15.90
2022-10-14T09:39:49.153Z,16.00
2022-10-14T09:42:22.527Z,16.00
2022-10-14T09:45:10.210Z,16.00
2022-10-14T09:47:52.395Z,16.10
2022-10-14T09:50:30.348Z,16.10
2022-10-14T09:53:02.780Z,16.10
2022-10-14T09:55:32.073Z,16.20
2022-10-14T09:58:05.692Z,16.20
2022-10-14T10:00:37.875Z,16.20
2022-10-14T10:03:12.545Z,16.30
2022-10-14T10:05:45.193Z,16.30
2022-10-14T10:08:20.610Z,16.30
2022-10-14T10:11:03.789Z,16.40
2022-10-14T10:13:40.325Z,16.40
2022-10-14T10:16:19.797Z,16.40
2022-10-14T10:18:49.734Z,16.40
2022-10-14T10:21:20.422Z,16.40
2022-10-14T10:23:54.909Z,16.40
2022-10-14T10:26:27.147Z,16.40
2022-10-14T10:28:58.103Z,16.30
2022-10-14T10:31:43.948Z,16.30
2022-10-14T10:34:40.288Z,16.40
2022-10-14T10:37:24.175Z,16.40
2022-10-14T10:40:18.448Z,16.50
2022-10-14T10:42:57.106Z,16.50
2022-10-14T10:45:37.987Z,16.60
2022-10-14T10:48:16.505Z,16.60
2022-10-14T10:50:56.250Z,16.60
2022-10-14T10:53:40.138Z,16.60
2022-10-14T10:56:20.388Z,16.70
2022-10-14T10:59:07.282Z,16.70
2022-10-14T11:01:44.650Z,16.70
2022-10-14T11:04:30.951Z,16.80
2022-10-14T11:07:29.942Z,16.80
2022-10-14T11:10:25.343Z,16.70
2022-10-14T11:13:01.059Z,16.70
2022-10-14T11:15:46.604Z,16.60
2022-10-14T11:18:36.085Z,16.60
2022-10-14T11:21:25.994Z,16.60
2022-10-14T11:24:07.125Z,16.70
2022-10-14T11:26:47.606Z,16.80
2022-10-14T11:29:38.436Z,16.70
2022-10-14T11:32:12.106Z,16.70
2022-10-14T11:34:54.938Z,16.70
2022-10-14T11:37:31.247Z,16.70
2022-10-14T11:40:08.296Z,16.60
2022-10-14T11:42:54.916Z,16.50
2022-10-14T11:45:46.834Z,16.50
2022-10-14T11:48:29.748Z,16.40
2022-10-14T11:51:06.493Z,16.40
2022-10-14T11:53:50.244Z,16.40
2022-10-14T11:56:38.650Z,16.40
2022-10-14T11:59:43.350Z,16.40
2022-10-14T12:02:22.075Z,16.30
2022-10-14T12:04:57.275Z,16.30
2022-10-14T12:07:32.070Z,16.30
2022-10-14T12:10:05.186Z,16.30
2022-10-14T12:12:37.153Z,16.30
2022-10-14T12:15:08.706Z,16.40
2022-10-14T12:17:44.118Z,16.40
2022-10-14T12:20:23.424Z,16.40
2022-10-14T12:22:53.020Z,16.30
2022-10-14T12:25:25.185Z,16.30
2022-10-14T12:27:55.494Z,16.40
2022-10-14T12:30:36.235Z,16.40
2022-10-14T12:33:06.918Z,16.50
2022-10-14T12:35:51.835Z,16.50
2022-10-14T12:38:23.289Z,16.60
2022-10-14T12:40:51.539Z,16.60
2022-10-14T12:43:26.546Z,16.70
2022-10-14T12:46:16.168Z,16.70
2022-10-14T12:48:51.011Z,16.70
2022-10-14T12:51:22.320Z,16.60
2022-10-14T12:53:58.056Z,16.60
2022-10-14T12:56:39.889Z,16.50
2022-10-14T12:59:18.405Z,16.60
2022-10-14T13:01:46.746Z,16.80
2022-10-14T13:04:20.055Z,16.90
2022-10-14T13:07:45.589Z,16.90
2022-10-14T13:10:47.333Z,16.90
2022-10-14T13:13:53.477Z,16.90
2022-10-14T13:16:59.361Z,16.90
2022-10-14T13:19:47.138Z,16.70
2022-10-14T13:22:38.076Z,16.70
2022-10-14T13:25:19.634Z,16.50
2022-10-14T13:28:05.528Z,16.50
2022-10-14T13:30:49.595Z,16.60
2022-10-14T13:33:26.087Z,16.90
2022-10-14T13:36:05.613Z,17.00
2022-10-14T13:38:35.583Z,17.00
2022-10-14T13:41:05.107Z,17.00
2022-10-14T13:43:40.525Z,17.00
2022-10-14T13:46:15.421Z,17.00
2022-10-14T13:48:49.264Z,17.00
2022-10-14T13:51:43.552Z,17.00
2022-10-14T13:54:18.265Z,17.20
2022-10-14T13:57:12.631Z,17.10
2022-10-14T14:00:38.981Z,17.10
2022-10-14T14:02:36.715Z,17.10
2022-10-14T14:05:07.005Z,17.20
2022-10-14T14:08:08.426Z,17.20
2022-10-14T14:10:26.989Z,17.20
2022-10-14T14:12:55.601Z,17.30
2022-10-14T14:15:26.613Z,17.40
2022-10-14T14:17:55.287Z,17.50
2022-10-14T14:20:28.378Z,17.60
2022-10-14T14:22:59.987Z,17.70
2022-10-14T14:25:34.412Z,17.70
2022-10-14T14:28:07.047Z,17.70
2022-10-14T14:30:37.196Z,17.70
2022-10-14T14:33:08.812Z,17.70
2022-10-14T14:35:38.787Z,17.70
2022-10-14T14:38:24.703Z,17.70
2022-10-14T14:41:01.944Z,17.70
2022-10-14T14:43:35.709Z,17.60
2022-10-14T14:46:06.664Z,17.50
2022-10-14T14:48:38.505Z,17.50
2022-10-14T14:51:13.751Z,17.40
2022-10-14T14:53:42.429Z,17.40
2022-10-14T14:56:16.093Z,17.40
2022-10-14T14:58:50.406Z,17.30
2022-10-14T15:01:22.362Z,17.40
2022-10-14T15:04:12.204Z,17.30
2022-10-14T15:06:51.659Z,17.20
2022-10-14T15:09:25.607Z,17.30
2022-10-14T15:11:57.821Z,17.20
2022-10-14T15:14:32.864Z,17.20
2022-10-14T15:17:01.186Z,17.20
2022-10-14T15:19:40.047Z,17.20
2022-10-14T15:22:34.999Z,17.10
2022-10-14T15:25:11.101Z,17.10
2022-10-14T15:27:46.683Z,17.10
2022-10-14T15:30:34.705Z,17.10
2022-10-14T15:33:22.299Z,17.10
2022-10-14T15:35:58.108Z,17.00
2022-10-14T15:38:28.722Z,17.00
2022-10-14T15:40:57.221Z,17.00
2022-10-14T15:43:27.074Z,17.00
2022-10-14T15:46:10.819Z,16.90
2022-10-14T15:48:40.593Z,17.00
2022-10-14T15:51:22.610Z,16.90
2022-10-14T15:53:52.652Z,16.90
2022-10-14T15:56:21.401Z,16.90
2022-10-14T15:58:49.891Z,16.80
2022-10-14T16:01:21.452Z,16.80
2022-10-14T16:03:50.072Z,16.90
2022-10-14T16:06:19.326Z,16.80
2022-10-14T16:08:47.599Z,16.90
2022-10-14T16:11:22.517Z,16.90
2022-10-14T16:13:52.125Z,16.90
2022-10-14T16:16:26.377Z,16.90
2022-10-14T16:18:54.628Z,16.90
2022-10-14T16:21:23.943Z,16.90
2022-10-14T16:23:52.814Z,16.90
2022-10-14T16:26:22.603Z,16.90
2022-10-14T16:29:06.300Z,16.90
2022-10-14T16:31:34.458Z,16.90
2022-10-14T16:34:03.354Z,16.90
2022-10-14T16:36:31.669Z,16.80
2022-10-14T16:39:00.527Z,16.80
2022-10-14T16:41:30.952Z,16.80
2022-10-14T16:43:59.273Z,16.80
2022-10-14T16:46:41.639Z,16.80
2022-10-14T16:49:11.347Z,16.70
2022-10-14T16:51:39.540Z,16.70
2022-10-14T16:54:08.217Z,16.70
2022-10-14T16:56:56.915Z,16.60
2022-10-14T16:59:25.770Z,16.50
2022-10-14T17:01:54.377Z,16.50
2022-10-14T17:04:23.693Z,16.50
2022-10-14T17:06:52.137Z,16.50
2022-10-14T17:09:20.721Z,16.40
2022-10-14T17:11:50.899Z,16.40
2022-10-14T17:14:22.164Z,16.50
2022-10-14T17:16:52.430Z,16.40
2022-10-14T17:19:21.023Z,16.40
2022-10-14T17:21:49.250Z,16.50
2022-10-14T17:24:17.753Z,16.50
2022-10-14T17:26:47.373Z,16.40
2022-10-14T17:29:17.031Z,16.40
2022-10-14T17:31:45.881Z,16.40
2022-10-14T17:34:14.245Z,16.40
2022-10-14T17:36:42.680Z,16.30
2022-10-14T17:39:18.901Z,16.30
2022-10-14T17:41:53.129Z,16.30
2022-10-14T17:44:22.759Z,16.30
2022-10-14T17:46:50.942Z,16.30
2022-10-14T17:49:19.110Z,16.20
2022-10-14T17:51:47.316Z,16.20
2022-10-14T17:54:15.873Z,16.20
2022-10-14T17:56:44.161Z,16.20
2022-10-14T17:59:14.358Z,16.20
2022-10-14T18:02:01.475Z,16.30
2022-10-14T18:04:30.643Z,16.30
2022-10-14T18:07:00.084Z,16.30
2022-10-14T18:09:28.884Z,16.20
2022-10-14T18:12:12.990Z,16.20
2022-10-14T18:14:41.648Z,16.20
2022-10-14T18:17:12.929Z,16.20
2022-10-14T18:19:42.000Z,16.20
2022-10-14T18:22:11.292Z,16.20
2022-10-14T18:24:40.200Z,16.20
2022-10-14T18:27:08.438Z,16.20
2022-10-14T18:29:37.884Z,16.10
2022-10-14T18:32:06.427Z,16.10
2022-10-14T18:34:36.607Z,16.20
2022-10-14T18:37:04.800Z,16.20
2022-10-14T18:39:33.251Z,16.10
2022-10-14T18:42:01.501Z,16.10
2022-10-14T18:44:29.834Z,16.10
2022-10-14T18:46:58.644Z,16.20
2022-10-14T18:49:29.266Z,16.10
2022-10-14T18:51:59.413Z,16.10
2022-10-14T18:54:28.165Z,16.10
2022-10-14T18:56:58.369Z,16.20
2022-10-14T18:59:27.278Z,16.20
2022-10-14T19:01:55.772Z,16.10
2022-10-14T19:04:28.060Z,16.10
2022-10-14T19:06:56.963Z,16.10
2022-10-14T19:09:29.692Z,16.00
2022-10-14T19:11:59.700Z,16.00
2022-10-14T19:14:28.748Z,16.00
2022-10-14T19:16:57.080Z,16.00
2022-10-14T19:19:25.540Z,16.00
2022-10-14T19:21:56.241Z,16.00
2022-10-14T19:24:24.535Z,15.90
2022-10-14T19:26:55.982Z,15.90
2022-10-14T19:29:24.686Z,15.90
2022-10-14T19:31:54.534Z,15.90
2022-10-14T19:34:26.843Z,15.90
2022-10-14T19:36:55.629Z,15.80
2022-10-14T19:39:23.800Z,15.80
2022-10-14T19:41:52.005Z,15.80
2022-10-14T19:44:22.072Z,15.80
2022-10-14T19:46:50.303Z,15.80
2022-10-14T19:49:19.049Z,15.80
2022-10-14T19:51:47.225Z,15.80
2022-10-14T19:54:16.382Z,15.70
2022-10-14T19:56:44.612Z,15.70
2022-10-14T19:59:14.827Z,15.80
2022-10-14T20:01:44.550Z,15.70
2022-10-14T20:04:13.360Z,15.70
2022-10-14T20:06:42.897Z,15.70
2022-10-14T20:09:14.599Z,15.60
2022-10-14T20:11:44.595Z,15.50
2022-10-14T20:14:14.492Z,15.50
2022-10-14T20:16:44.105Z,15.40
2022-10-14T20:19:13.230Z,15.40
2022-10-14T20:21:41.442Z,15.40
2022-10-14T20:24:10.592Z,15.40
2022-10-14T20:26:38.798Z,15.40
2022-10-14T20:29:07.666Z,15.40
2022-10-14T20:31:36.190Z,15.40
2022-10-14T20:34:10.486Z,15.30
2022-10-14T20:36:39.897Z,15.30
2022-10-14T20:39:08.152Z,15.30
2022-10-14T20:41:36.948Z,15.30
2022-10-14T20:44:05.274Z,15.30
2022-10-14T20:46:33.578Z,15.30
2022-10-14T20:49:01.865Z,15.30
2022-10-14T20:51:31.662Z,15.20
2022-10-14T20:54:04.206Z,15.30
2022-10-14T20:56:35.627Z,15.30
2022-10-14T20:59:05.923Z,15.30
2022-10-14T21:01:35.793Z,15.30
2022-10-14T21:04:07.075Z,15.30
2022-10-14T21:06:39.078Z,15.30
2022-10-14T21:09:07.780Z,15.30
2022-10-14T21:11:35.997Z,15.30
2022-10-14T21:14:05.140Z,15.30
2022-10-14T21:16:34.942Z,15.30
2022-10-14T21:19:05.462Z,15.30
2022-10-14T21:21:40.163Z,15.30
2022-10-14T21:24:09.069Z,15.30
2022-10-14T21:26:37.566Z,15.30
2022-10-14T21:29:06.333Z,15.30
2022-10-14T21:31:34.680Z,15.30
2022-10-14T21:34:06.044Z,15.30
2022-10-14T21:36:35.160Z,15.40
2022-10-14T21:39:08.293Z,15.40
2022-10-14T21:41:37.194Z,15.40
2022-10-14T21:44:06.407Z,15.40
2022-10-14T21:46:35.329Z,15.30
2022-10-14T21:49:03.855Z,15.30
2022-10-14T21:51:32.781Z,15.30
2022-10-14T21:54:01.153Z,15.30
2022-10-14T21:56:33.429Z,15.30
2022-10-14T21:59:02.436Z,15.30
2022-10-14T22:01:32.368Z,15.30
2022-10-14T22:04:04.108Z,15.30
2022-10-14T22:06:34.714Z,15.30
2022-10-14T22:09:06.394Z,15.20
2022-10-14T22:11:39.066Z,15.30
2022-10-14T22:14:11.869Z,15.20
2022-10-14T22:16:41.159Z,15.20
2022-10-14T22:19:10.765Z,15.20
2022-10-14T22:21:40.548Z,15.20
2022-10-14T22:24:09.446Z,15.20
2022-10-14T22:26:40.430Z,15.20
2022-10-14T22:29:12.849Z,15.20
2022-10-14T22:31:41.420Z,15.20
2022-10-14T22:34:11.883Z,15.20
2022-10-14T22:36:40.627Z,15.20
2022-10-14T22:39:13.001Z,15.20
2022-10-14T22:41:42.736Z,15.20
2022-10-14T22:44:11.461Z,15.20
2022-10-14T22:46:40.937Z,15.20
2022-10-14T22:49:09.072Z,15.20
2022-10-14T22:51:41.266Z,15.20
2022-10-14T22:54:09.803Z,15.20
2022-10-14T22:56:39.969Z,15.20
2022-10-14T22:59:11.111Z,15.20
2022-10-14T23:01:39.559Z,15.20
2022-10-14T23:04:07.973Z,15.30
2022-10-14T23:06:36.169Z,15.30
2022-10-14T23:09:07.330Z,15.30
2022-10-14T23:11:35.435Z,15.30
2022-10-14T23:14:07.159Z,15.30
2022-10-14T23:16:37.621Z,15.20
2022-10-14T23:19:06.192Z,15.30
2022-10-14T23:21:35.915Z,15.20
2022-10-14T23:24:06.287Z,15.20
2022-10-14T23:26:36.217Z,15.20
2022-10-14T23:29:06.442Z,15.20
2022-10-14T23:31:37.834Z,15.20
2022-10-14T23:34:07.680Z,15.20
2022-10-14T23:36:35.824Z,15.10
2022-10-14T23:39:04.798Z,15.20
2022-10-14T23:41:33.194Z,15.10
2022-10-14T23:44:01.441Z,15.10
2022-10-14T23:46:29.746Z,15.10
2022-10-14T23:49:07.253Z,15.10
2022-10-14T23:51:42.518Z,15.10
2022-10-14T23:54:10.703Z,15.10
2022-10-14T23:56:38.813Z,15.10
2022-10-14T23:59:07.185Z,15.20
